Time;durP1;ratioP1;P1;durP2;ratioP2;P2;SDS_P1;SDS_P2;PMS_P1;PMS_P2;Temp;Humidity;BMP_temperature;BMP_pressure;BME280_temperature;BME280_humidity;BME280_pressure;Samples;Min_cycle;Max_cycle;Signal;HPM_P1;HPM_P2
2023/01/12 00:01:15;;;;;;;;;;;;;;;8.38;100.00;100854.75;5121652;27;19956;-90
2023/01/12 00:03:40;;;;;;;;;;;;;;;8.38;100.00;100855.59;5138126;27;20199;-90
2023/01/12 00:06:06;;;;;;;;;;;;;;;8.38;100.00;100852.97;5139397;27;19919;-90
2023/01/12 00:08:35;;;;;;;;;;;;;;;8.39;100.00;100869.50;5122627;27;20006;-90
2023/01/12 00:11:07;;;;;;;;;;;;;;;8.39;100.00;100846.03;5122079;27;19951;-90
2023/01/12 00:13:32;;;;;;;;;;;;;;;8.39;100.00;100836.44;5139453;27;20194;-90
2023/01/12 00:18:43;;;;;;;;;;;;;;;8.42;100.00;100838.13;5137964;27;19921;-89
2023/01/12 00:21:09;;;;;;;;;;;;;;;8.43;100.00;100834.63;5118334;28;20161;-90
2023/01/12 00:23:34;;;;;;;;;;;;;;;8.43;100.00;100817.19;5119409;28;19964;-90
2023/01/12 00:26:00;;;;;;;;;;;;;;;8.46;100.00;100816.25;5122933;27;19964;-90
2023/01/12 00:28:25;;;;;;;;;;;;;;;8.47;100.00;100810.13;5116592;28;20130;-90
2023/01/12 00:30:51;;;;;;;;;;;;;;;8.48;100.00;100810.97;5102169;28;19939;-90
2023/01/12 00:33:16;;;;;;;;;;;;;;;8.48;100.00;100801.41;5102579;28;20118;-90
2023/01/12 00:35:42;;;;;;;;;;;;;;;8.49;100.00;100803.09;5118981;28;19915;-89
2023/01/12 00:38:07;;;;;;;;;;;;;;;8.50;100.00;100799.59;5102526;28;19912;-90
2023/01/12 00:40:34;;;;;;;;;;;;;;;8.51;100.00;100801.28;5110916;27;20115;-90
2023/01/12 00:45:48;;;;;;;;;;;;;;;8.53;100.00;100786.44;5142238;27;19963;-89
2023/01/12 00:48:14;;;;;;;;;;;;;;;8.56;100.00;100777.66;5140184;27;20147;-90
2023/01/12 00:50:39;;;;;;;;;;;;;;;8.56;100.00;100773.28;5122606;27;19919;-90
2023/01/12 00:53:05;;;;;;;;;;;;;;;8.57;100.00;100764.53;5158730;27;19917;-90
2023/01/12 00:55:30;;;;;;;;;;;;;;;8.60;100.00;100748.78;5122588;27;20159;-90
2023/01/12 00:57:56;;;;;;;;;;;;;;;8.61;100.00;100749.63;5122869;27;19911;-90
2023/01/12 01:00:21;;;;;;;;;;;;;;;8.63;100.00;100758.25;5121026;27;19926;-90
2023/01/12 01:02:47;;;;;;;;;;;;;;;8.64;100.00;100749.50;5118974;28;20088;-90
2023/01/12 01:05:13;;;;;;;;;;;;;;;8.63;100.00;100743.44;5119590;28;19915;-90
2023/01/12 01:07:38;;;;;;;;;;;;;;;8.65;100.00;100751.22;5101812;28;19919;-89
2023/01/12 01:10:04;;;;;;;;;;;;;;;8.65;100.00;100749.47;5122360;27;19919;-90
2023/01/12 01:12:30;;;;;;;;;;;;;;;8.67;100.00;100743.34;5141472;27;19965;-90
2023/01/12 01:14:55;;;;;;;;;;;;;;;8.68;100.00;100752.88;5105516;27;19911;-90
2023/01/12 01:17:21;;;;;;;;;;;;;;;8.69;100.00;100736.31;5105850;27;19919;-90
2023/01/12 01:19:47;;;;;;;;;;;;;;;8.69;100.00;100724.09;5105429;27;20025;-90
2023/01/12 01:22:13;;;;;;;;;;;;;;;8.70;100.00;100741.47;5105984;27;19920;-90
2023/01/12 01:24:38;;;;;;;;;;;;;;;8.70;100.00;100724.97;5105233;27;20144;-89
2023/01/12 01:27:04;;;;;;;;;;;;;;;8.69;100.00;100726.72;5105732;27;19978;-90
2023/01/12 01:29:30;;;;;;;;;;;;;;;8.69;100.00;100718.88;5122845;27;19919;-90
2023/01/12 01:31:56;;;;;;;;;;;;;;;8.69;100.00;100720.66;5141009;27;19908;-90
2023/01/12 01:34:22;;;;;;;;;;;;;;;8.70;100.00;100732.81;5122828;27;19930;-90
2023/01/12 01:36:48;;;;;;;;;;;;;;;8.69;100.00;100726.72;5122244;27;19922;-90
2023/01/12 01:39:13;;;;;;;;;;;;;;;8.67;100.00;100712.84;5122288;27;19911;-90
2023/01/12 01:41:39;;;;;;;;;;;;;;;8.68;100.00;100708.47;5104990;27;19920;-90
2023/01/12 01:44:24;;;;;;;;;;;;;;;8.67;100.00;100712.03;5105349;27;20109;-90
2023/01/12 01:46:51;;;;;;;;;;;;;;;8.68;100.00;100703.25;5121822;27;19923;-90
2023/01/12 01:49:25;;;;;;;;;;;;;;;8.67;100.00;100707.63;5122069;27;19922;-90
2023/01/12 01:51:55;;;;;;;;;;;;;;;8.68;100.00;100695.44;5121813;27;19915;-90
2023/01/12 01:54:21;;;;;;;;;;;;;;;8.67;100.00;100688.53;5140473;27;19920;-90
2023/01/12 01:56:47;;;;;;;;;;;;;;;8.67;100.00;100697.19;5139957;27;19907;-90
2023/01/12 01:59:15;;;;;;;;;;;;;;;8.67;100.00;100689.38;5122178;27;19997;-90
2023/01/12 02:04:16;;;;;;;;;;;;;;;8.65;100.00;100673.75;1297496;26;19958;-80
2023/01/12 02:06:42;;;;;;;;;;;;;;;8.66;100.00;100658.97;5082560;28;19998;-79
2023/01/12 02:09:14;;;;;;;;;;;;;;;8.65;100.00;100652.88;5080758;28;19912;-79
2023/01/12 02:17:14;;;;;;;;;;;;;;;8.68;100.00;100644.09;5099150;28;19951;-80
2023/01/12 02:19:57;;;;;;;;;;;;;;;8.69;100.00;100632.72;5098292;28;19908;-80
2023/01/12 02:22:35;;;;;;;;;;;;;;;8.70;100.00;100629.22;5098855;28;20089;-80
2023/01/12 02:25:03;;;;;;;;;;;;;;;8.71;100.00;100632.66;5098658;28;19915;-80
2023/01/12 02:27:47;;;;;;;;;;;;;;;8.70;100.00;100624.00;5097447;28;20211;-80
2023/01/12 02:30:18;;;;;;;;;;;;;;;8.72;100.00;100627.41;5097414;28;19920;-80
2023/01/12 02:32:44;;;;;;;;;;;;;;;8.73;100.00;100609.97;5098390;28;19912;-80
2023/01/12 02:35:15;;;;;;;;;;;;;;;8.72;100.00;100606.50;5098485;28;19916;-79
2023/01/12 02:37:47;;;;;;;;;;;;;;;8.72;100.00;100611.72;5097119;28;19916;-80
2023/01/12 02:40:35;;;;;;;;;;;;;;;8.72;100.00;100606.50;5098350;28;19923;-79
2023/01/12 02:43:04;;;;;;;;;;;;;;;8.72;100.00;100590.00;5099131;28;20256;-79
2023/01/12 02:45:35;;;;;;;;;;;;;;;8.71;100.00;100591.75;5098247;28;19923;-79
2023/01/12 02:48:07;;;;;;;;;;;;;;;8.72;100.00;100569.13;5098577;28;19916;-80
2023/01/12 02:50:40;;;;;;;;;;;;;;;8.72;100.00;100553.44;5096877;28;20018;-80
2023/01/12 02:53:09;;;;;;;;;;;;;;;8.72;100.00;100553.44;5098828;28;19912;-80
2023/01/12 02:55:35;;;;;;;;;;;;;;;8.73;100.00;100547.31;5096617;28;19908;-80
2023/01/12 02:58:01;;;;;;;;;;;;;;;8.73;100.00;100542.09;5098381;28;19961;-80
2023/01/12 03:00:28;;;;;;;;;;;;;;;8.71;100.00;100534.31;5097253;28;20204;-80
2023/01/12 03:02:53;;;;;;;;;;;;;;;8.73;100.00;100515.97;5079484;28;19912;-80
2023/01/12 03:05:18;;;;;;;;;;;;;;;8.72;100.00;100520.34;5096896;28;20258;-80
2023/01/12 03:07:44;;;;;;;;;;;;;;;8.73;100.00;100505.53;5096765;28;19987;-80
2023/01/12 03:10:09;;;;;;;;;;;;;;;8.73;100.00;100510.75;5097858;28;19943;-79
2023/01/12 03:12:36;;;;;;;;;;;;;;;8.73;100.00;100497.69;5097572;28;20062;-79
2023/01/12 03:15:04;;;;;;;;;;;;;;;8.73;100.00;100487.25;5097076;28;20099;-79
2023/01/12 03:17:34;;;;;;;;;;;;;;;8.74;100.00;100450.66;5096573;28;19958;-79
2023/01/12 03:20:06;;;;;;;;;;;;;;;8.75;100.00;100438.44;5096766;28;19954;-79
2023/01/12 03:22:33;;;;;;;;;;;;;;;8.76;100.00;100424.47;5098336;28;20115;-79
2023/01/12 03:25:01;;;;;;;;;;;;;;;8.76;100.00;100434.94;5097682;28;19908;-79
2023/01/12 03:27:35;;;;;;;;;;;;;;;8.76;100.00;100414.88;5096113;28;19920;-79
2023/01/12 03:30:04;;;;;;;;;;;;;;;8.76;100.00;100408.81;5096648;28;19916;-79
2023/01/12 03:32:29;;;;;;;;;;;;;;;8.75;100.00;100387.09;5096764;28;19920;-79
2023/01/12 03:34:55;;;;;;;;;;;;;;;8.76;100.00;100382.72;5096208;28;20143;-79
2023/01/12 03:37:24;;;;;;;;;;;;;;;8.76;100.00;100385.31;5098100;28;19942;-79
2023/01/12 03:40:00;;;;;;;;;;;;;;;8.75;100.00;100374.03;5097600;28;19916;-79
2023/01/12 03:42:46;;;;;;;;;;;;;;;8.74;100.00;100354.03;5097560;28;19916;-79
2023/01/12 03:45:30;;;;;;;;;;;;;;;8.74;100.00;100372.31;5097463;28;19908;-79
2023/01/12 03:48:08;;;;;;;;;;;;;;;8.73;100.00;100354.97;5097559;28;19916;-79
2023/01/12 03:50:37;;;;;;;;;;;;;;;8.72;100.00;100355.88;5095780;28;19940;-79
2023/01/12 03:53:04;;;;;;;;;;;;;;;8.70;100.00;100354.25;5097266;28;20259;-79
2023/01/12 03:55:31;;;;;;;;;;;;;;;8.67;100.00;100339.53;5097259;28;19921;-79
2023/01/12 03:57:56;;;;;;;;;;;;;;;8.68;100.00;100338.66;5096035;28;19968;-79
2023/01/12 04:00:23;;;;;;;;;;;;;;;8.65;100.00;100339.59;5079103;28;19924;-79
2023/01/12 04:02:48;;;;;;;;;;;;;;;8.65;100.00;100328.31;5097101;28;19908;-79
2023/01/12 04:05:14;;;;;;;;;;;;;;;8.64;100.00;100335.31;5097293;28;19943;-79
2023/01/12 04:07:39;;;;;;;;;;;;;;;8.64;100.00;100330.09;5096979;28;19982;-79
2023/01/12 04:10:04;;;;;;;;;;;;;;;8.62;100.00;100315.38;5097115;28;20116;-78
2023/01/12 04:12:30;;;;;;;;;;;;;;;8.59;100.00;100318.97;5097665;28;19924;-79
2023/01/12 04:14:55;;;;;;;;;;;;;;;8.59;100.00;100307.69;5095689;28;20001;-79
2023/01/12 04:17:23;;;;;;;;;;;;;;;8.58;100.00;100282.50;5095842;28;19920;-79
2023/01/12 04:19:50;;;;;;;;;;;;;;;8.58;100.00;100313.81;5095627;28;19912;-79
2023/01/12 04:24:59;;;;;;;;;;;;;;;8.54;100.00;100289.59;5096198;28;20010;-79
2023/01/12 04:27:24;;;;;;;;;;;;;;;8.53;100.00;100314.03;5097018;28;19932;-79
2023/01/12 04:29:50;;;;;;;;;;;;;;;8.52;100.00;100287.97;5095494;28;20226;-79
2023/01/12 04:32:15;;;;;;;;;;;;;;;8.53;100.00;100268.78;5096948;28;19920;-79
2023/01/12 04:34:40;;;;;;;;;;;;;;;8.50;100.00;100267.16;5095454;28;20231;-79
2023/01/12 04:37:05;;;;;;;;;;;;;;;8.49;100.00;100268.06;5095924;28;19912;-79
2023/01/12 04:39:31;;;;;;;;;;;;;;;8.48;100.00;100258.53;5096531;28;19912;-79
2023/01/12 04:41:56;;;;;;;;;;;;;;;8.50;100.00;100258.50;5095563;28;20195;-79
2023/01/12 04:44:21;;;;;;;;;;;;;;;8.48;100.00;100268.13;5100894;28;19920;-79
2023/01/12 04:46:47;;;;;;;;;;;;;;;8.48;100.00;100266.38;5100646;28;19926;-79
2023/01/12 04:49:12;;;;;;;;;;;;;;;8.48;100.00;100265.50;5100733;28;19916;-79
2023/01/12 04:51:38;;;;;;;;;;;;;;;8.47;100.00;100263.81;5099430;28;19975;-79
2023/01/12 04:54:03;;;;;;;;;;;;;;;8.46;100.00;100276.03;5099500;28;19978;-80
2023/01/12 04:56:29;;;;;;;;;;;;;;;8.45;100.00;100259.50;5100287;28;20337;-79
2023/01/12 04:58:58;;;;;;;;;;;;;;;8.46;100.00;100260.38;5099358;28;19944;-79
2023/01/12 05:01:23;;;;;;;;;;;;;;;8.45;100.00;100259.50;5100371;28;19916;-79
2023/01/12 05:03:49;;;;;;;;;;;;;;;8.46;100.00;100276.03;5098964;28;19918;-79
2023/01/12 05:06:14;;;;;;;;;;;;;;;8.47;100.00;100274.25;5098816;28;19954;-80
2023/01/12 05:11:27;;;;;;;;;;;;;;;8.49;100.00;100262.84;5099994;28;19958;-80
2023/01/12 05:13:53;;;;;;;;;;;;;;;8.50;100.00;100292.41;5099893;28;19920;-79
2023/01/12 05:16:20;;;;;;;;;;;;;;;8.49;100.00;100291.53;5100168;28;19923;-80
2023/01/12 05:18:45;;;;;;;;;;;;;;;8.50;100.00;100290.66;5100343;28;19935;-80
2023/01/12 05:21:11;;;;;;;;;;;;;;;8.50;100.00;100280.22;5100128;28;19920;-80
2023/01/12 05:23:37;;;;;;;;;;;;;;;8.52;100.00;100290.59;5099820;28;20092;-80
2023/01/12 05:26:03;;;;;;;;;;;;;;;8.55;100.00;100298.28;5099986;28;19946;-80
2023/01/12 05:28:29;;;;;;;;;;;;;;;8.57;100.00;100292.09;5098489;28;19911;-80
2023/01/12 05:30:54;;;;;;;;;;;;;;;8.59;100.00;100274.59;5099824;28;19923;-79
2023/01/12 05:33:20;;;;;;;;;;;;;;;8.61;100.00;100272.78;5099739;28;19916;-79
2023/01/12 05:35:45;;;;;;;;;;;;;;;8.64;100.00;100262.22;5099866;28;19919;-79
2023/01/12 05:38:11;;;;;;;;;;;;;;;8.65;100.00;100261.28;5099959;28;19908;-80
2023/01/12 05:40:36;;;;;;;;;;;;;;;8.68;100.00;100251.63;5099282;28;19913;-80
2023/01/12 05:45:45;;;;;;;;;;;;;;;8.72;100.00;100246.22;5099601;28;19979;-80
2023/01/12 05:48:11;;;;;;;;;;;;;;;8.75;100.00;100247.84;5099997;28;20195;-80
2023/01/12 05:50:36;;;;;;;;;;;;;;;8.78;100.00;100260.78;5099266;28;20214;-79
2023/01/12 05:53:01;;;;;;;;;;;;;;;8.80;100.00;100251.13;5099584;28;19965;-79
2023/01/12 05:55:27;;;;;;;;;;;;;;;8.87;100.00;100252.56;5098293;28;19920;-81
2023/01/12 05:57:52;;;;;;;;;;;;;;;8.90;100.00;100246.38;5099151;28;19931;-79
2023/01/12 06:00:18;;;;;;;;;;;;;;;8.91;100.00;100242.81;5097980;28;19956;-80
2023/01/12 06:02:43;;;;;;;;;;;;;;;8.93;100.00;100254.91;5080670;28;20180;-80
2023/01/12 06:05:09;;;;;;;;;;;;;;;8.96;100.00;100243.47;5099465;28;19928;-79
2023/01/12 06:07:35;;;;;;;;;;;;;;;8.99;100.00;100266.84;5098945;28;19957;-80
2023/01/12 06:10:00;;;;;;;;;;;;;;;9.02;100.00;100278.03;5099110;28;19916;-80
2023/01/12 06:15:09;;;;;;;;;;;;;;;9.15;100.00;100269.63;5099203;28;19928;-81
2023/01/12 06:17:35;;;;;;;;;;;;;;;9.18;100.00;100265.13;5098654;28;19979;-80
2023/01/12 06:20:00;;;;;;;;;;;;;;;9.22;100.00;100332.03;5099206;28;19912;-80
2023/01/12 06:22:28;;;;;;;;;;;;;;;9.27;100.00;100291.78;5093158;28;19920;-80
2023/01/12 06:24:53;;;;;;;;;;;;;;;9.29;100.00;100256.81;5078252;28;19924;-80
2023/01/12 06:27:19;;;;;;;;;;;;;;;9.32;100.00;100279.34;5077141;28;19913;-79
2023/01/12 06:29:44;;;;;;;;;;;;;;;9.33;100.00;100312.41;5078357;28;19944;-81
2023/01/12 06:32:09;;;;;;;;;;;;;;;9.35;100.00;100290.53;5077548;28;20206;-79
2023/01/12 06:34:35;;;;;;;;;;;;;;;9.39;100.00;100286.84;5077952;28;19931;-82
2023/01/12 06:37:01;;;;;;;;;;;;;;;9.41;100.00;100276.34;5077058;28;19927;-79
2023/01/12 06:39:27;;;;;;;;;;;;;;;9.44;100.00;100277.94;5078544;28;19979;-81
2023/01/12 06:44:36;;;;;;;;;;;;;;;9.45;100.00;100261.38;5077971;28;19947;-79
2023/01/12 06:47:02;;;;;;;;;;;;;;;9.45;100.00;100288.34;5077877;28;19920;-80
2023/01/12 06:49:27;;;;;;;;;;;;;;;9.50;100.00;100282.91;5078137;28;19917;-80
2023/01/12 06:51:53;;;;;;;;;;;;;;;9.53;100.00;100309.78;5078143;28;20214;-79
2023/01/12 06:54:18;;;;;;;;;;;;;;;9.56;100.00;100301.78;5078223;28;20156;-80
2023/01/12 06:56:43;;;;;;;;;;;;;;;9.61;100.00;100294.56;5077526;28;19912;-79
2023/01/12 06:59:11;;;;;;;;;;;;;;;9.64;100.00;100311.03;5078118;28;20203;-79
2023/01/12 07:01:36;;;;;;;;;;;;;;;9.67;100.00;100296.06;5077466;28;19993;-79
2023/01/12 07:04:02;;;;;;;;;;;;;;;9.68;100.00;100334.38;5078120;28;19920;-80
2023/01/12 07:06:27;;;;;;;;;;;;;;;9.70;100.00;100309.00;5077261;28;19928;-79
2023/01/12 07:08:52;;;;;;;;;;;;;;;9.71;100.00;100321.13;5076244;28;20138;-79
2023/01/12 07:11:17;;;;;;;;;;;;;;;9.73;100.00;100311.47;5078395;28;19928;-80
2023/01/12 07:13:43;;;;;;;;;;;;;;;9.73;100.00;100293.19;5078105;28;20017;-80
2023/01/12 07:16:08;;;;;;;;;;;;;;;9.73;100.00;100305.38;5086492;28;20220;-79
2023/01/12 07:18:33;;;;;;;;;;;;;;;9.73;100.00;100314.09;5085636;28;19959;-81
2023/01/12 07:21:02;;;;;;;;;;;;;;;9.75;100.00;100320.09;5077639;28;19947;-79
2023/01/12 07:23:27;;;;;;;;;;;;;;;9.76;100.00;100313.94;5077145;28;20078;-80
2023/01/12 07:25:55;;;;;;;;;;;;;;;9.78;100.00;100340.03;5076747;28;19944;-80
2023/01/12 07:28:20;;;;;;;;;;;;;;;9.78;100.00;100327.78;5077140;28;19961;-79
2023/01/12 07:30:45;;;;;;;;;;;;;;;9.81;100.00;100337.28;5076977;28;20183;-80
2023/01/12 07:33:12;;;;;;;;;;;;;;;9.85;100.00;100322.28;5077295;28;19925;-81
2023/01/12 07:35:37;;;;;;;;;;;;;;;9.87;100.00;100325.69;5076616;28;20133;-80
2023/01/12 07:38:05;;;;;;;;;;;;;;;9.87;100.00;100326.53;5076781;28;20317;-80
2023/01/12 07:40:30;;;;;;;;;;;;;;;9.87;100.00;100339.59;5080930;28;20273;-81
2023/01/12 07:42:59;;;;;;;;;;;;;;;9.89;100.00;100343.00;5087934;28;19927;-80
2023/01/12 07:45:24;;;;;;;;;;;;;;;9.89;100.00;100344.78;5096494;28;20181;-80
2023/01/12 07:47:53;;;;;;;;;;;;;;;9.88;100.00;100338.69;5091537;28;19919;-80
2023/01/12 07:50:18;;;;;;;;;;;;;;;9.90;100.00;100343.88;5097137;28;19939;-80
2023/01/12 07:52:43;;;;;;;;;;;;;;;9.91;100.00;100358.63;5097046;28;19975;-80
2023/01/12 07:55:09;;;;;;;;;;;;;;;9.92;100.00;100352.47;5096084;28;19999;-80
2023/01/12 07:57:36;;;;;;;;;;;;;;;9.94;100.00;100380.25;5089355;28;19927;-80
2023/01/12 08:00:02;;;;;;;;;;;;;;;9.97;100.00;100363.59;5096460;28;19912;-80
2023/01/12 08:02:27;;;;;;;;;;;;;;;9.98;100.00;100370.50;5096991;28;20111;-80
2023/01/12 08:04:53;;;;;;;;;;;;;;;10.01;100.00;100330.28;5096115;28;19987;-81
2023/01/12 08:07:19;;;;;;;;;;;;;;;10.02;100.00;100403.44;5096800;28;19939;-79
2023/01/12 08:09:44;;;;;;;;;;;;;;;10.03;100.00;100352.00;5096649;28;19920;-81
2023/01/12 08:12:09;;;;;;;;;;;;;;;10.04;100.00;100391.19;5095556;28;19912;-81
2023/01/12 08:14:38;;;;;;;;;;;;;;;10.05;100.00;100387.63;5096646;28;19961;-80
2023/01/12 08:17:16;;;;;;;;;;;;;;;10.08;100.00;100363.94;5097634;28;20131;-80
2023/01/12 08:19:45;;;;;;;;;;;;;;;10.12;100.00;100351.56;5101175;28;19916;-80
2023/01/12 08:22:17;;;;;;;;;;;;;;;10.14;100.00;100395.03;5101541;28;19916;-80
2023/01/12 08:24:47;;;;;;;;;;;;;;;10.17;100.00;100373.16;5099943;28;19916;-80
2023/01/12 08:27:12;;;;;;;;;;;;;;;10.17;100.00;100365.28;5099885;28;19920;-81
2023/01/12 08:29:42;;;;;;;;;;;;;;;10.17;100.00;100399.31;5099781;28;19948;-80
2023/01/12 08:32:08;;;;;;;;;;;;;;;10.17;100.00;100401.94;5100124;28;19938;-80
2023/01/12 08:34:34;;;;;;;;;;;;;;;10.15;100.00;100401.13;5099358;28;19994;-80
2023/01/12 08:37:02;;;;;;;;;;;;;;;10.16;100.00;100410.69;5100049;28;20195;-80
2023/01/12 08:39:28;;;;;;;;;;;;;;;10.14;100.00;100386.34;5100531;28;19991;-80
2023/01/12 08:41:53;;;;;;;;;;;;;;;10.12;100.00;100396.88;5100885;28;20089;-79
2023/01/12 08:44:20;;;;;;;;;;;;;;;10.13;100.00;100392.50;5101047;28;19916;-80
2023/01/12 08:46:52;;;;;;;;;;;;;;;10.12;100.00;100411.75;5100643;28;19912;-80
2023/01/12 08:49:19;;;;;;;;;;;;;;;10.12;100.00;100433.53;5099510;28;20252;-80
2023/01/12 08:51:45;;;;;;;;;;;;;;;10.14;100.00;100410.75;5100283;28;20158;-80
2023/01/12 08:54:10;;;;;;;;;;;;;;;10.16;100.00;100413.28;5099728;28;19955;-80
2023/01/12 08:56:36;;;;;;;;;;;;;;;10.17;100.00;100408.00;5099577;28;19920;-80
2023/01/12 08:59:01;;;;;;;;;;;;;;;10.19;100.00;100418.41;5100834;28;19964;-80
2023/01/12 09:01:27;;;;;;;;;;;;;;;10.20;100.00;100414.84;5100576;28;19951;-80
2023/01/12 09:03:52;;;;;;;;;;;;;;;10.20;100.00;100407.00;5100541;28;20028;-79
2023/01/12 09:06:19;;;;;;;;;;;;;;;10.22;100.00;100430.47;5098985;28;19991;-80
2023/01/12 09:08:45;;;;;;;;;;;;;;;10.23;100.00;100435.66;5100184;28;19916;-79
2023/01/12 09:11:11;;;;;;;;;;;;;;;10.24;100.00;100419.03;5100413;28;20215;-80
2023/01/12 09:13:36;;;;;;;;;;;;;;;10.25;100.00;100430.34;5100072;28;19919;-80
2023/01/12 09:16:02;;;;;;;;;;;;;;;10.27;100.00;100438.97;5100136;28;20123;-80
2023/01/12 09:18:27;;;;;;;;;;;;;;;10.27;100.00;100421.50;5100321;28;19987;-80
2023/01/12 09:20:58;;;;;;;;;;;;;;;10.28;100.00;100452.00;5098813;28;19943;-80
2023/01/12 09:23:23;;;;;;;;;;;;;;;10.29;100.00;100445.00;5100116;28;20147;-79
2023/01/12 09:25:48;;;;;;;;;;;;;;;10.29;100.00;100479.84;5098387;28;19923;-79
2023/01/12 09:28:14;;;;;;;;;;;;;;;10.30;100.00;100452.78;5099824;28;19947;-79
2023/01/12 09:30:39;;;;;;;;;;;;;;;10.30;100.00;100481.56;5098932;28;19935;-79
2023/01/12 09:33:04;;;;;;;;;;;;;;;10.30;100.00;100451.94;5098748;28;19920;-80
2023/01/12 09:35:30;;;;;;;;;;;;;;;10.29;100.00;100481.63;5099918;28;19947;-79
2023/01/12 09:37:55;;;;;;;;;;;;;;;10.28;100.00;100495.66;5099837;28;19920;-80
2023/01/12 09:40:20;;;;;;;;;;;;;;;10.26;100.00;100480.00;5099764;28;20204;-80
2023/01/12 09:48:20;;;;;;;;;;;;;;;10.19;100.00;100479.44;5099699;28;20026;-80
2023/01/12 09:50:54;;;;;;;;;;;;;;;10.19;100.00;100482.03;5099350;28;20169;-80
2023/01/12 09:53:37;;;;;;;;;;;;;;;10.19;100.00;100496.91;5099447;28;19920;-80
2023/01/12 09:56:25;;;;;;;;;;;;;;;10.18;100.00;100497.81;5099713;28;19958;-80
2023/01/12 09:59:08;;;;;;;;;;;;;;;10.18;100.00;100495.19;5099324;28;20010;-80
2023/01/12 10:01:35;;;;;;;;;;;;;;;10.16;100.00;100504.88;5098895;28;20033;-80
2023/01/12 10:04:01;;;;;;;;;;;;;;;10.16;100.00;100482.19;5099645;28;19916;-80
2023/01/12 10:06:26;;;;;;;;;;;;;;;10.15;100.00;100471.78;5099136;28;20114;-80
2023/01/12 10:08:55;;;;;;;;;;;;;;;10.16;100.00;100479.56;5099117;28;19947;-80
2023/01/12 10:11:39;;;;;;;;;;;;;;;10.17;100.00;100496.13;5098989;28;19995;-79
2023/01/12 10:14:07;;;;;;;;;;;;;;;10.19;100.00;100497.75;5099357;28;19912;-79
2023/01/12 10:16:38;;;;;;;;;;;;;;;10.20;100.00;100522.13;5097916;28;19916;-79
2023/01/12 10:19:14;;;;;;;;;;;;;;;10.21;100.00;100502.91;5079370;28;19983;-80
2023/01/12 10:21:40;;;;;;;;;;;;;;;10.23;100.00;100497.63;5078710;28;19908;-80
2023/01/12 10:24:09;;;;;;;;;;;;;;;10.23;100.00;100506.31;5078640;28;19981;-79
2023/01/12 10:26:39;;;;;;;;;;;;;;;10.24;100.00;100510.66;5077901;28;20196;-80
2023/01/12 10:29:08;;;;;;;;;;;;;;;10.25;100.00;100506.25;5078923;28;19983;-80
2023/01/12 10:31:34;;;;;;;;;;;;;;;10.25;100.00;100511.47;5078397;28;19916;-79
2023/01/12 10:34:05;;;;;;;;;;;;;;;10.26;100.00;100521.03;5080833;28;19931;-79
2023/01/12 10:36:31;;;;;;;;;;;;;;;10.27;100.00;100510.47;5078511;28;19924;-79
2023/01/12 10:38:59;;;;;;;;;;;;;;;10.28;100.00;100509.59;5078344;28;20235;-80
2023/01/12 10:41:36;;;;;;;;;;;;;;;10.30;100.00;100492.03;5077964;28;19927;-79
2023/01/12 10:44:01;;;;;;;;;;;;;;;10.31;100.00;100500.75;5078520;28;19935;-79
2023/01/12 10:46:30;;;;;;;;;;;;;;;10.31;100.00;100514.69;5078123;28;19979;-80
2023/01/12 10:49:14;;;;;;;;;;;;;;;10.31;100.00;100488.50;5076836;28;19920;-80
2023/01/12 10:51:48;;;;;;;;;;;;;;;10.32;100.00;100492.84;5077957;28;19923;-79
2023/01/12 10:54:30;;;;;;;;;;;;;;;10.33;100.00;100496.31;5077705;28;19932;-79
2023/01/12 10:56:58;;;;;;;;;;;;;;;10.35;100.00;100503.19;5076253;28;19923;-80
2023/01/12 10:59:30;;;;;;;;;;;;;;;10.35;100.00;100500.56;5078376;28;20200;-80
2023/01/12 11:02:04;;;;;;;;;;;;;;;10.35;100.00;100491.84;5078029;28;20265;-79
2023/01/12 11:04:30;;;;;;;;;;;;;;;10.35;100.00;100490.09;5077964;28;20154;-80
2023/01/12 11:06:58;;;;;;;;;;;;;;;10.33;100.00;100499.78;5077803;28;19985;-80
2023/01/12 11:09:24;;;;;;;;;;;;;;;10.34;100.00;100495.41;5077860;28;19916;-80
2023/01/12 11:11:54;;;;;;;;;;;;;;;10.34;100.00;100485.78;5077375;28;20117;-79
2023/01/12 11:14:24;;;;;;;;;;;;;;;10.35;100.00;100494.47;5077886;28;20070;-79
2023/01/12 11:16:49;;;;;;;;;;;;;;;10.34;100.00;100501.47;5077856;28;19909;-80
2023/01/12 11:19:28;;;;;;;;;;;;;;;10.35;100.00;100484.00;5077741;28;19919;-80
2023/01/12 11:21:56;;;;;;;;;;;;;;;10.35;100.00;100484.88;5077606;28;20305;-80
2023/01/12 11:24:24;;;;;;;;;;;;;;;10.35;100.00;100494.47;5077911;28;20235;-80
2023/01/12 11:26:49;;;;;;;;;;;;;;;10.34;100.00;100472.69;5077466;28;19916;-80
2023/01/12 11:29:23;;;;;;;;;;;;;;;10.36;100.00;100485.69;5077843;28;19920;-80
2023/01/12 11:31:52;;;;;;;;;;;;;;;10.35;100.00;100478.75;5077197;28;19916;-80
2023/01/12 11:34:21;;;;;;;;;;;;;;;10.34;100.00;100475.28;5077392;28;19920;-80
2023/01/12 11:36:49;;;;;;;;;;;;;;;10.35;100.00;100482.25;5077437;28;19921;-80
2023/01/12 11:39:18;;;;;;;;;;;;;;;10.35;100.00;100463.94;5076112;28;19961;-80
2023/01/12 11:43:47;;;;;;;;;;;;;;;10.36;100.00;100475.22;5077081;28;19924;-79
2023/01/12 11:44:33;;;;;;;;;;;;;;;10.36;100.00;100483.09;5077262;28;19917;-80
2023/01/12 11:47:11;;;;;;;;;;;;;;;10.36;100.00;100462.16;5077589;28;19916;-80
2023/01/12 11:49:37;;;;;;;;;;;;;;;10.36;100.00;100481.31;5077335;28;19971;-80
2023/01/12 11:52:02;;;;;;;;;;;;;;;10.35;100.00;100474.41;5076763;28;20089;-79
2023/01/12 11:54:28;;;;;;;;;;;;;;;10.37;100.00;100488.25;5077508;28;20155;-80
2023/01/12 11:57:12;;;;;;;;;;;;;;;10.37;100.00;100477.78;5076119;28;19916;-79
2023/01/12 11:59:56;;;;;;;;;;;;;;;10.37;100.00;100467.31;5077125;28;20139;-79
2023/01/12 12:02:38;;;;;;;;;;;;;;;10.37;100.00;100453.38;5077220;28;19947;-80
2023/01/12 12:05:21;;;;;;;;;;;;;;;10.38;100.00;100460.31;5077224;28;20111;-80
2023/01/12 12:08:05;;;;;;;;;;;;;;;10.36;100.00;100442.03;5077035;28;20146;-80
2023/01/12 12:10:57;;;;;;;;;;;;;;;10.36;100.00;100456.91;5075770;28;19916;-80
2023/01/12 12:13:22;;;;;;;;;;;;;;;10.34;100.00;100472.69;5052497;28;20093;-79
2023/01/12 12:15:56;;;;;;;;;;;;;;;10.34;100.00;100451.75;5076977;28;19913;-80
2023/01/12 12:18:24;;;;;;;;;;;;;;;10.35;100.00;100447.34;5077383;28;19939;-80
2023/01/12 12:21:07;;;;;;;;;;;;;;;10.32;100.00;100437.88;5077252;28;19931;-80
2023/01/12 12:23:32;;;;;;;;;;;;;;;10.31;100.00;100441.41;5076713;28;19987;-80
2023/01/12 12:26:04;;;;;;;;;;;;;;;10.30;100.00;100446.69;5077124;28;19931;-80
2023/01/12 12:28:47;;;;;;;;;;;;;;;10.29;100.00;100414.41;5077172;28;20095;-80
2023/01/12 12:31:27;;;;;;;;;;;;;;;10.26;100.00;100411.97;5076107;28;19958;-80
2023/01/12 12:33:56;;;;;;;;;;;;;;;10.25;100.00;100420.72;5075603;28;20231;-80
2023/01/12 12:36:34;;;;;;;;;;;;;;;10.24;100.00;100432.13;5076978;28;20124;-80
2023/01/12 12:38:59;;;;;;;;;;;;;;;10.23;100.00;100422.56;5077644;28;19977;-80
2023/01/12 12:47:28;;;;;;;;;;;;;;;10.22;100.00;100412.16;5095761;28;20115;-79
2023/01/12 12:49:55;;;;;;;;;;;;;;;10.22;100.00;100393.84;5095292;28;19923;-80
2023/01/12 12:52:21;;;;;;;;;;;;;;;10.21;100.00;100400.84;5080327;28;19908;-79
2023/01/12 12:54:46;;;;;;;;;;;;;;;10.20;100.00;100404.38;5074506;28;19917;-80
2023/01/12 12:57:13;;;;;;;;;;;;;;;10.21;100.00;100410.50;5089564;28;19920;-80
2023/01/12 12:59:39;;;;;;;;;;;;;;;10.19;100.00;100393.06;5093985;28;19908;-79
2023/01/12 13:02:24;;;;;;;;;;;;;;;10.19;100.00;100385.22;5096472;28;19931;-79
2023/01/12 13:04:50;;;;;;;;;;;;;;;10.21;100.00;100386.94;5098251;28;19963;-79
2023/01/12 13:07:18;;;;;;;;;;;;;;;10.19;100.00;100387.00;5100059;28;20192;-80
2023/01/12 13:09:44;;;;;;;;;;;;;;;10.18;100.00;100370.44;5081705;28;19920;-79
2023/01/12 13:12:17;;;;;;;;;;;;;;;10.19;100.00;100377.38;5079440;28;20212;-79
2023/01/12 13:14:42;;;;;;;;;;;;;;;10.18;100.00;100372.19;5096604;28;19987;-79
2023/01/12 13:17:34;;;;;;;;;;;;;;;10.17;100.00;100389.69;5099852;28;19920;-79